Time;durP1;ratioP1;P1;durP2;ratioP2;P2;SDS_P1;SDS_P2;PMS_P1;PMS_P2;Temp;Humidity;BMP_temperature;BMP_pressure;BME280_temperature;BME280_humidity;BME280_pressure;Samples;Min_cycle;Max_cycle;Signal;HPM_P1;HPM_P2
2023/12/05 00:02:16;;;;;;;6.60;6.00;;;4.90;99.90;;;;;;4930235;29;20697;-80
2023/12/05 00:04:43;;;;;;;8.57;6.83;;;4.90;99.90;;;;;;4951663;29;20209;-79
2023/12/05 00:07:11;;;;;;;7.90;7.10;;;4.90;99.90;;;;;;4942543;29;20210;-80
2023/12/05 00:09:38;;;;;;;8.60;7.00;;;4.90;99.90;;;;;;4932055;29;20239;-80
2023/12/05 00:12:08;;;;;;;7.30;6.60;;;4.80;99.90;;;;;;4948338;29;20211;-79
2023/12/05 00:14:35;;;;;;;6.57;5.87;;;4.80;99.90;;;;;;4942067;29;20222;-80
2023/12/05 00:17:03;;;;;;;7.20;6.33;;;5.00;99.90;;;;;;4935424;29;20205;-80
2023/12/05 00:19:30;;;;;;;6.60;5.90;;;5.00;99.90;;;;;;4930260;29;20729;-80
2023/12/05 00:21:58;;;;;;;6.27;5.67;;;4.90;99.90;;;;;;4927574;29;20203;-80
2023/12/05 00:24:25;;;;;;;7.07;6.33;;;4.80;99.90;;;;;;4949225;29;20200;-79
2023/12/05 00:26:53;;;;;;;7.37;6.57;;;4.90;99.90;;;;;;4931844;29;20205;-80
2023/12/05 00:29:22;;;;;;;8.37;6.63;;;4.90;99.90;;;;;;4951013;28;20231;-80
2023/12/05 00:31:49;;;;;;;6.83;6.23;;;5.00;99.90;;;;;;4935707;29;20201;-80
2023/12/05 00:34:16;;;;;;;7.63;6.20;;;5.00;99.90;;;;;;4934382;29;20204;-80
2023/12/05 00:36:44;;;;;;;8.37;6.67;;;5.00;99.90;;;;;;4938197;29;20210;-80
2023/12/05 00:39:12;;;;;;;6.80;5.47;;;4.90;99.90;;;;;;4932605;29;20246;-79
2023/12/05 00:41:39;;;;;;;6.00;5.27;;;5.00;99.90;;;;;;4936555;29;20199;-80
2023/12/05 00:44:07;;;;;;;6.03;5.30;;;5.00;99.90;;;;;;4935020;29;20216;-80
2023/12/05 00:46:36;;;;;;;7.37;6.07;;;5.00;99.90;;;;;;4952130;28;20215;-80
2023/12/05 00:49:03;;;;;;;6.17;5.53;;;5.00;99.90;;;;;;4930562;29;20722;-79
2023/12/05 00:51:31;;;;;;;6.27;5.37;;;5.00;99.90;;;;;;4943646;29;20212;-80
2023/12/05 00:53:58;;;;;;;6.53;5.60;;;5.00;99.90;;;;;;4949333;29;20216;-80
2023/12/05 00:56:26;;;;;;;6.13;5.30;;;5.00;99.90;;;;;;4931590;29;20594;-79
2023/12/05 00:58:53;;;;;;;6.30;5.70;;;5.10;99.90;;;;;;4936763;29;20220;-80
2023/12/05 01:01:21;;;;;;;5.90;5.30;;;5.10;99.90;;;;;;4931877;29;20217;-80
2023/12/05 01:03:51;;;;;;;6.93;6.23;;;5.20;99.90;;;;;;4944450;29;20209;-80
2023/12/05 01:06:19;;;;;;;7.17;5.90;;;5.10;99.90;;;;;;4935169;29;20208;-80
2023/12/05 01:08:46;;;;;;;6.30;5.67;;;5.10;99.90;;;;;;4927598;29;20237;-80
2023/12/05 01:11:14;;;;;;;7.30;6.10;;;5.00;99.90;;;;;;4933033;29;20206;-80
2023/12/05 01:13:43;;;;;;;7.03;6.00;;;5.00;99.90;;;;;;4932743;29;20204;-80
2023/12/05 01:16:12;;;;;;;8.13;6.20;;;5.10;99.90;;;;;;4934300;29;20234;-80
2023/12/05 01:18:39;;;;;;;7.63;6.20;;;5.10;99.90;;;;;;4936351;29;20238;-80
2023/12/05 01:21:08;;;;;;;6.27;5.67;;;5.10;99.90;;;;;;4948259;29;20206;-80
2023/12/05 01:23:36;;;;;;;6.27;5.67;;;5.00;99.90;;;;;;4933656;29;20227;-80
2023/12/05 01:26:03;;;;;;;5.93;5.30;;;5.10;99.90;;;;;;4936131;29;20214;-80
2023/12/05 01:28:31;;;;;;;5.47;4.87;;;5.10;99.90;;;;;;4930497;29;20233;-80
2023/12/05 01:30:58;;;;;;;7.30;5.70;;;5.10;99.90;;;;;;4949222;29;20707;-80
2023/12/05 01:33:25;;;;;;;6.33;5.67;;;5.20;99.90;;;;;;4929830;29;20205;-80
2023/12/05 01:35:53;;;;;;;6.17;5.03;;;5.10;99.90;;;;;;4950109;29;20215;-80
2023/12/05 01:38:22;;;;;;;5.80;5.17;;;5.10;99.90;;;;;;4935545;29;20218;-80
2023/12/05 01:40:49;;;;;;;5.77;5.17;;;5.20;99.90;;;;;;4946652;28;20218;-80
2023/12/05 01:43:17;;;;;;;6.20;5.23;;;5.20;99.90;;;;;;4929347;29;20221;-80
2023/12/05 01:45:44;;;;;;;5.63;5.07;;;5.20;99.90;;;;;;4931290;29;20205;-79
2023/12/05 01:48:12;;;;;;;5.60;5.10;;;5.20;99.90;;;;;;4934020;29;20428;-80
2023/12/05 01:50:39;;;;;;;5.30;4.80;;;5.20;99.90;;;;;;4933339;29;20199;-80
2023/12/05 01:53:08;;;;;;;5.63;4.80;;;5.20;99.90;;;;;;4931757;29;20215;-79
2023/12/05 01:55:38;;;;;;;5.87;5.27;;;5.30;99.90;;;;;;4929597;29;20227;-80
2023/12/05 01:58:08;;;;;;;6.23;5.20;;;5.30;99.90;;;;;;4934453;29;20234;-79
2023/12/05 02:00:38;;;;;;;6.70;5.23;;;5.20;99.90;;;;;;4932928;29;20199;-79
2023/12/05 02:03:05;;;;;;;6.03;5.43;;;5.20;99.90;;;;;;4928526;29;20213;-79
2023/12/05 02:05:33;;;;;;;5.80;5.10;;;5.20;99.90;;;;;;4931405;29;20196;-80
2023/12/05 02:08:01;;;;;;;5.90;5.33;;;5.10;99.90;;;;;;4933464;29;20725;-79
2023/12/05 02:10:28;;;;;;;5.47;4.97;;;5.10;99.90;;;;;;4929246;29;20217;-79
2023/12/05 02:12:57;;;;;;;6.27;5.67;;;5.20;99.90;;;;;;4938026;29;20882;-79
2023/12/05 02:15:24;;;;;;;5.17;4.67;;;5.20;99.90;;;;;;4935379;29;20951;-79
2023/12/05 02:18:01;;;;;;;6.30;5.70;;;5.20;99.90;;;;;;4934882;29;20217;-80
2023/12/05 02:20:35;;;;;;;6.13;5.17;;;5.20;99.90;;;;;;4935400;29;20206;-80
2023/12/05 02:23:26;;;;;;;6.47;5.53;;;5.20;99.90;;;;;;4936111;29;20219;-79
2023/12/05 02:26:07;;;;;;;6.07;5.47;;;5.20;99.90;;;;;;4934193;29;20203;-80
2023/12/05 02:28:37;;;;;;;6.30;5.10;;;5.20;99.90;;;;;;4936781;29;20220;-79
2023/12/05 02:31:05;;;;;;;5.83;5.23;;;5.20;99.90;;;;;;4934405;29;20205;-80
2023/12/05 02:33:33;;;;;;;5.80;5.17;;;5.20;99.90;;;;;;4972615;23;20714;-79
2023/12/05 02:36:09;;;;;;;6.17;5.57;;;5.20;99.90;;;;;;4961642;29;20222;-79
2023/12/05 02:38:42;;;;;;;5.97;5.37;;;5.20;99.90;;;;;;4959427;29;20206;-79
2023/12/05 02:41:18;;;;;;;5.77;5.27;;;5.20;99.90;;;;;;4957939;29;20201;-79
2023/12/05 02:43:50;;;;;;;7.27;5.57;;;5.20;99.90;;;;;;4949211;28;20234;-79
2023/12/05 02:46:18;;;;;;;6.43;5.37;;;5.20;99.90;;;;;;4944520;29;20205;-80
2023/12/05 02:48:46;;;;;;;5.77;5.07;;;5.20;99.90;;;;;;4944070;29;20217;-79
2023/12/05 02:51:13;;;;;;;5.47;4.63;;;5.30;99.90;;;;;;4942990;29;20196;-80
2023/12/05 02:53:41;;;;;;;6.30;5.67;;;5.30;99.90;;;;;;4948219;29;20229;-79
2023/12/05 02:56:09;;;;;;;6.50;5.80;;;5.30;99.90;;;;;;4940625;29;20229;-80
2023/12/05 02:58:36;;;;;;;5.87;4.87;;;5.20;99.90;;;;;;4941088;29;20208;-80
2023/12/05 03:01:05;;;;;;;6.93;5.70;;;5.20;99.90;;;;;;4938822;29;20204;-79
2023/12/05 03:03:33;;;;;;;5.90;4.87;;;5.30;99.90;;;;;;4939284;29;20240;-79
2023/12/05 03:06:00;;;;;;;5.63;5.03;;;5.20;99.90;;;;;;4938311;29;20205;-79
2023/12/05 03:08:27;;;;;;;5.87;5.13;;;5.20;99.90;;;;;;4937224;29;20216;-79
2023/12/05 03:10:55;;;;;;;7.10;5.33;;;5.20;99.90;;;;;;4938996;29;20214;-79
2023/12/05 03:13:22;;;;;;;5.87;4.83;;;5.30;99.90;;;;;;4940082;29;20224;-79
2023/12/05 03:15:50;;;;;;;5.67;4.90;;;5.30;99.90;;;;;;4942434;29;20210;-79
2023/12/05 03:18:18;;;;;;;6.17;5.03;;;5.40;99.90;;;;;;4940601;29;20215;-79
2023/12/05 03:20:46;;;;;;;5.77;4.80;;;5.30;99.90;;;;;;4939266;29;20201;-79
2023/12/05 03:23:16;;;;;;;5.70;5.10;;;5.30;99.90;;;;;;4944770;29;20766;-79
2023/12/05 03:25:43;;;;;;;6.03;5.43;;;5.40;99.90;;;;;;4941058;29;20215;-79
2023/12/05 03:28:10;;;;;;;5.73;4.87;;;5.30;99.90;;;;;;4941394;29;20204;-80
2023/12/05 03:30:38;;;;;;;5.40;4.90;;;5.30;99.90;;;;;;4957373;28;20572;-79
2023/12/05 03:33:05;;;;;;;5.60;4.83;;;5.40;99.90;;;;;;4939726;29;20237;-79
2023/12/05 03:35:34;;;;;;;7.10;5.10;;;5.40;99.90;;;;;;4938325;29;20201;-79
2023/12/05 03:38:01;;;;;;;4.73;4.10;;;5.40;99.90;;;;;;4951833;28;20717;-79
2023/12/05 03:40:29;;;;;;;5.37;4.73;;;5.40;99.90;;;;;;4940904;29;20696;-79
2023/12/05 03:42:56;;;;;;;5.00;4.57;;;5.50;99.90;;;;;;4932444;29;20237;-79
2023/12/05 03:45:24;;;;;;;4.37;3.97;;;5.40;99.90;;;;;;4937125;29;20749;-79
2023/12/05 03:47:51;;;;;;;5.40;4.13;;;5.30;99.90;;;;;;4942198;29;20211;-79
2023/12/05 03:50:19;;;;;;;5.37;4.30;;;5.20;99.90;;;;;;4936678;29;20216;-79
2023/12/05 03:52:47;;;;;;;5.17;4.67;;;5.20;99.90;;;;;;4940709;29;20241;-79
2023/12/05 03:55:15;;;;;;;4.20;3.80;;;5.30;99.90;;;;;;4943533;29;20209;-79
2023/12/05 03:57:43;;;;;;;4.07;3.70;;;5.40;99.90;;;;;;4940213;29;20223;-80
2023/12/05 04:00:12;;;;;;;4.40;4.00;;;5.40;99.90;;;;;;4938649;29;20225;-80
2023/12/05 04:02:40;;;;;;;4.87;4.33;;;5.40;99.90;;;;;;4939914;29;20218;-79
2023/12/05 04:05:08;;;;;;;4.50;4.10;;;5.40;99.90;;;;;;4934478;29;20205;-79
2023/12/05 04:07:37;;;;;;;4.53;4.13;;;5.40;99.90;;;;;;4942308;29;20215;-80
2023/12/05 04:10:07;;;;;;;4.10;3.70;;;5.40;99.90;;;;;;4936240;29;20576;-79
2023/12/05 04:12:35;;;;;;;5.20;4.50;;;5.50;99.90;;;;;;4939584;29;20721;-79
2023/12/05 04:15:02;;;;;;;4.30;3.90;;;5.50;99.90;;;;;;4931312;29;20242;-79
2023/12/05 04:17:29;;;;;;;4.40;4.00;;;5.40;99.90;;;;;;4929887;29;20233;-80
2023/12/05 04:19:57;;;;;;;4.80;3.93;;;5.30;99.90;;;;;;4939215;29;20219;-79
2023/12/05 04:22:24;;;;;;;4.93;4.30;;;5.30;99.90;;;;;;4948203;28;20585;-79
2023/12/05 04:24:52;;;;;;;4.83;4.40;;;5.30;99.90;;;;;;4934676;29;20199;-79
2023/12/05 04:27:20;;;;;;;4.67;4.20;;;5.30;99.90;;;;;;4944032;29;20208;-79
2023/12/05 04:29:48;;;;;;;5.33;4.40;;;5.40;99.90;;;;;;4938069;29;20206;-80
2023/12/05 04:32:15;;;;;;;5.03;4.53;;;5.40;99.90;;;;;;4938524;29;20690;-79
2023/12/05 04:34:44;;;;;;;4.77;4.37;;;5.40;99.90;;;;;;4936588;29;20205;-79
2023/12/05 04:37:12;;;;;;;5.07;4.37;;;5.40;99.90;;;;;;4935152;29;20215;-79
2023/12/05 04:39:40;;;;;;;5.20;4.70;;;5.40;99.90;;;;;;4936500;29;20202;-79
2023/12/05 04:42:08;;;;;;;5.23;4.83;;;5.40;99.90;;;;;;4940772;29;20601;-79
2023/12/05 04:44:36;;;;;;;5.80;4.80;;;5.40;99.90;;;;;;4938137;29;20215;-79
2023/12/05 04:47:04;;;;;;;5.77;4.77;;;5.50;99.90;;;;;;4937022;29;20208;-79
2023/12/05 04:49:32;;;;;;;5.87;5.00;;;5.50;99.90;;;;;;4938233;29;20572;-79
2023/12/05 04:51:59;;;;;;;5.70;5.03;;;5.50;99.90;;;;;;4936869;29;20216;-79
2023/12/05 04:54:26;;;;;;;5.53;4.87;;;5.50;99.90;;;;;;4935888;29;20206;-80
2023/12/05 04:56:54;;;;;;;6.20;5.60;;;5.50;99.90;;;;;;4942543;29;20231;-79
2023/12/05 04:59:21;;;;;;;6.23;5.47;;;5.60;99.90;;;;;;4937945;29;20202;-80
2023/12/05 05:01:50;;;;;;;6.63;5.77;;;5.60;99.90;;;;;;4936947;29;20209;-80
2023/12/05 05:04:18;;;;;;;5.93;5.37;;;5.70;99.90;;;;;;4934982;29;20209;-80
2023/12/05 05:06:45;;;;;;;6.47;5.87;;;5.70;99.90;;;;;;4935229;29;20216;-79
2023/12/05 05:09:12;;;;;;;5.27;4.77;;;5.80;99.90;;;;;;4937827;29;20206;-80
2023/12/05 05:11:40;;;;;;;5.67;5.07;;;5.70;99.90;;;;;;4937781;29;20237;-79
2023/12/05 05:14:07;;;;;;;4.93;4.43;;;5.60;99.90;;;;;;4937019;29;20221;-79
2023/12/05 05:16:35;;;;;;;5.33;4.83;;;5.60;99.90;;;;;;4935861;29;20209;-79
2023/12/05 05:19:05;;;;;;;5.70;4.90;;;5.60;99.90;;;;;;4936484;29;20202;-79
2023/12/05 05:21:32;;;;;;;6.00;5.10;;;5.60;99.90;;;;;;4933555;29;20207;-79
2023/12/05 05:24:00;;;;;;;5.10;4.63;;;5.60;99.90;;;;;;4952718;28;20243;-79
2023/12/05 05:26:27;;;;;;;5.37;4.87;;;5.60;99.90;;;;;;4931617;29;20203;-79
2023/12/05 05:28:54;;;;;;;5.27;4.77;;;5.50;99.90;;;;;;4935914;29;20200;-79
2023/12/05 05:31:22;;;;;;;5.77;5.17;;;5.60;99.90;;;;;;4932161;29;20201;-79
2023/12/05 05:33:49;;;;;;;5.50;4.30;;;5.60;99.90;;;;;;4933757;29;20672;-79
2023/12/05 05:36:24;;;;;;;4.80;4.13;;;5.60;99.90;;;;;;4932823;29;20209;-78
2023/12/05 05:38:52;;;;;;;5.17;4.63;;;5.60;99.90;;;;;;4932937;29;20247;-78
2023/12/05 05:41:19;;;;;;;4.50;4.10;;;5.60;99.90;;;;;;4931630;29;20205;-78
2023/12/05 05:43:46;;;;;;;5.60;5.10;;;5.60;99.90;;;;;;4933066;29;20588;-78
2023/12/05 05:46:14;;;;;;;4.53;3.90;;;5.60;99.90;;;;;;4941867;29;20198;-80
2023/12/05 05:48:42;;;;;;;5.27;3.87;;;5.70;99.90;;;;;;4944962;29;20206;-81
2023/12/05 05:51:15;;;;;;;5.37;4.87;;;5.70;99.90;;;;;;4944192;29;20201;-80
2023/12/05 05:53:44;;;;;;;5.80;5.00;;;5.70;99.90;;;;;;4942963;29;20227;-80
2023/12/05 05:56:13;;;;;;;5.43;4.67;;;5.70;99.90;;;;;;4946315;29;20207;-80
2023/12/05 05:58:40;;;;;;;4.87;4.30;;;5.80;99.90;;;;;;4953815;29;20223;-80
2023/12/05 06:01:08;;;;;;;5.43;4.07;;;5.70;99.90;;;;;;4935888;29;20215;-80
2023/12/05 06:03:35;;;;;;;5.40;4.70;;;5.80;99.90;;;;;;4948021;29;20236;-80
2023/12/05 06:06:03;;;;;;;4.83;4.33;;;5.80;99.90;;;;;;4942861;29;20204;-80
2023/12/05 06:08:31;;;;;;;5.07;4.33;;;5.80;99.90;;;;;;4945377;29;20216;-80
2023/12/05 06:11:00;;;;;;;5.27;4.77;;;5.80;99.90;;;;;;4940531;29;20204;-80
2023/12/05 06:13:27;;;;;;;4.97;4.27;;;5.70;99.90;;;;;;4942328;29;20236;-80
2023/12/05 06:15:54;;;;;;;5.33;4.67;;;5.80;99.90;;;;;;4944364;29;20206;-80
2023/12/05 06:18:22;;;;;;;4.40;4.00;;;5.80;99.90;;;;;;4946731;29;20228;-80
2023/12/05 06:20:51;;;;;;;4.97;4.23;;;5.80;99.90;;;;;;4941697;29;20224;-80
2023/12/05 06:23:19;;;;;;;4.57;4.10;;;5.90;99.90;;;;;;4942021;29;20224;-80
2023/12/05 06:25:46;;;;;;;6.97;4.30;;;5.90;99.90;;;;;;4949603;29;20199;-80
2023/12/05 06:28:17;;;;;;;6.07;4.40;;;5.90;99.90;;;;;;4943344;29;20210;-80
2023/12/05 06:30:44;;;;;;;4.83;4.33;;;5.90;99.90;;;;;;4937316;29;20202;-80
2023/12/05 06:33:13;;;;;;;4.70;4.20;;;5.90;99.90;;;;;;4941695;29;20248;-80
2023/12/05 06:35:41;;;;;;;5.37;4.60;;;6.00;99.90;;;;;;4941568;29;20208;-80
2023/12/05 06:38:08;;;;;;;5.90;4.40;;;6.00;99.90;;;;;;4936757;29;20608;-80
2023/12/05 06:40:37;;;;;;;5.63;4.23;;;6.00;99.90;;;;;;4943822;29;20667;-80
2023/12/05 06:43:05;;;;;;;5.70;4.23;;;6.00;99.90;;;;;;4957680;29;20227;-80
2023/12/05 06:45:34;;;;;;;5.33;4.40;;;6.00;99.90;;;;;;4942354;29;20648;-80
2023/12/05 06:48:02;;;;;;;4.53;4.10;;;6.00;99.90;;;;;;4941899;29;20210;-80
2023/12/05 06:50:29;;;;;;;4.67;4.07;;;6.00;99.90;;;;;;4940149;29;20200;-80
2023/12/05 06:52:59;;;;;;;5.67;4.60;;;6.00;99.90;;;;;;4942242;29;20239;-80
2023/12/05 06:55:27;;;;;;;5.07;4.43;;;6.00;99.90;;;;;;4944852;29;20219;-83
2023/12/05 06:57:54;;;;;;;6.10;4.83;;;6.10;99.90;;;;;;4944634;29;20217;-81
2023/12/05 07:00:22;;;;;;;5.53;4.90;;;6.00;99.90;;;;;;4945927;29;20209;-81
2023/12/05 07:02:51;;;;;;;6.00;5.07;;;6.00;99.90;;;;;;4924609;29;20608;-79
2023/12/05 07:05:18;;;;;;;5.90;4.87;;;6.00;99.90;;;;;;4954359;28;20212;-79
2023/12/05 07:07:46;;;;;;;6.93;5.03;;;6.10;99.90;;;;;;4936552;29;20600;-79
2023/12/05 07:10:13;;;;;;;7.03;5.33;;;6.00;99.90;;;;;;4933035;29;20220;-79
2023/12/05 07:12:41;;;;;;;6.67;5.67;;;6.10;99.90;;;;;;4937895;29;20711;-79
2023/12/05 07:15:09;;;;;;;5.63;5.03;;;6.00;99.90;;;;;;4938224;29;20206;-79
2023/12/05 07:17:37;;;;;;;7.13;5.20;;;6.10;99.90;;;;;;4935762;29;20209;-79
2023/12/05 07:20:08;;;;;;;6.73;5.37;;;6.10;99.90;;;;;;4950211;28;20210;-79
2023/12/05 07:22:36;;;;;;;6.67;5.93;;;6.00;99.90;;;;;;4939324;29;20220;-79
2023/12/05 07:25:04;;;;;;;5.90;5.17;;;6.10;99.90;;;;;;4951000;29;20216;-79
2023/12/05 07:27:32;;;;;;;6.67;5.37;;;6.10;99.90;;;;;;4941767;29;20777;-79
2023/12/05 07:30:01;;;;;;;6.17;5.53;;;6.10;99.90;;;;;;4941174;29;20209;-79
2023/12/05 07:32:29;;;;;;;5.57;4.73;;;6.10;99.90;;;;;;4938888;29;20238;-79
2023/12/05 07:34:57;;;;;;;7.63;6.00;;;6.20;99.90;;;;;;4941061;29;20226;-79
2023/12/05 07:37:26;;;;;;;6.00;5.30;;;6.20;99.90;;;;;;4943793;29;20200;-79
2023/12/05 07:39:54;;;;;;;6.57;5.67;;;6.20;99.90;;;;;;4947869;29;20218;-79
2023/12/05 07:42:21;;;;;;;7.03;5.87;;;6.20;99.90;;;;;;4936909;29;20224;-76
2023/12/05 07:44:48;;;;;;;8.00;5.97;;;6.20;99.90;;;;;;4935526;29;20186;-76
2023/12/05 07:47:16;;;;;;;7.10;5.40;;;6.10;99.90;;;;;;4934019;29;20201;-76
2023/12/05 07:49:44;;;;;;;6.87;5.70;;;6.10;99.90;;;;;;4934153;29;20209;-76
2023/12/05 07:52:12;;;;;;;9.03;6.50;;;6.20;99.90;;;;;;4934213;29;20228;-76
2023/12/05 07:54:40;;;;;;;5.93;5.30;;;6.20;99.90;;;;;;4934484;29;20204;-78
2023/12/05 07:57:11;;;;;;;7.43;6.67;;;6.20;99.90;;;;;;4937126;29;20204;-77
2023/12/05 08:00:04;;;;;;;7.10;6.40;;;6.20;99.90;;;;;;4934113;29;20223;-77
2023/12/05 08:02:59;;;;;;;7.20;6.13;;;6.20;99.90;;;;;;4938367;29;20224;-77
2023/12/05 08:05:38;;;;;;;6.27;5.67;;;6.20;99.90;;;;;;4933875;29;20550;-77
2023/12/05 08:08:18;;;;;;;6.80;6.10;;;6.20;99.90;;;;;;4932925;29;20219;-76
2023/12/05 08:10:49;;;;;;;10.80;7.10;;;6.30;99.90;;;;;;4933582;29;20696;-76
2023/12/05 08:13:33;;;;;;;7.07;5.87;;;6.30;99.90;;;;;;4931058;29;20572;-76
2023/12/05 08:16:07;;;;;;;6.47;5.73;;;6.30;99.90;;;;;;4932137;29;20209;-76
2023/12/05 08:18:39;;;;;;;7.50;6.13;;;6.30;99.90;;;;;;4930207;29;20581;-77
2023/12/05 08:21:11;;;;;;;6.37;5.33;;;6.30;99.90;;;;;;4930305;29;20209;-76
2023/12/05 08:23:42;;;;;;;7.73;5.57;;;6.30;99.90;;;;;;4934240;29;20236;-79
2023/12/05 08:26:19;;;;;;;6.47;5.57;;;6.40;99.90;;;;;;4935817;29;20216;-79
2023/12/05 08:28:51;;;;;;;6.10;5.03;;;6.40;99.90;;;;;;4940692;29;20204;-79
2023/12/05 08:31:33;;;;;;;6.47;5.83;;;6.40;99.90;;;;;;4936264;29;20200;-79
2023/12/05 08:34:00;;;;;;;8.00;5.57;;;6.40;99.90;;;;;;4963424;23;20228;-85
2023/12/05 08:36:28;;;;;;;6.80;4.93;;;6.50;99.90;;;;;;4926821;29;20209;-85
2023/12/05 08:38:55;;;;;;;6.23;5.30;;;6.50;99.90;;;;;;4928049;29;20240;-85
2023/12/05 08:41:24;;;;;;;5.40;4.63;;;6.50;99.90;;;;;;4927555;29;20203;-85
2023/12/05 08:43:52;;;;;;;6.40;4.93;;;6.50;99.90;;;;;;4920548;29;20226;-85
2023/12/05 08:46:19;;;;;;;6.67;4.50;;;6.60;99.90;;;;;;4926528;29;20211;-86
2023/12/05 08:48:47;;;;;;;4.70;4.17;;;6.60;99.90;;;;;;4923082;29;20201;-85
2023/12/05 08:51:14;;;;;;;4.70;4.00;;;6.60;99.90;;;;;;4917522;29;20202;-85
2023/12/05 08:53:41;;;;;;;4.90;4.33;;;6.60;99.90;;;;;;4919642;29;20226;-84
2023/12/05 08:56:10;;;;;;;4.87;4.33;;;6.70;99.90;;;;;;4916172;29;20212;-85
2023/12/05 08:58:39;;;;;;;4.87;3.70;;;6.70;99.90;;;;;;4914273;29;20214;-84
2023/12/05 09:01:10;;;;;;;5.37;4.33;;;6.70;99.90;;;;;;4916713;29;20214;-84
2023/12/05 09:03:38;;;;;;;4.87;4.07;;;6.70;99.90;;;;;;4918976;29;20238;-84
2023/12/05 09:06:06;;;;;;;3.60;3.17;;;6.70;99.90;;;;;;4928396;29;20221;-84
2023/12/05 09:08:33;;;;;;;3.80;3.37;;;6.70;99.90;;;;;;4924927;29;20210;-84
2023/12/05 09:11:01;;;;;;;4.27;3.40;;;6.80;99.90;;;;;;4924310;29;20208;-84
2023/12/05 09:13:28;;;;;;;4.47;3.27;;;6.80;99.90;;;;;;4924807;29;20230;-85
2023/12/05 09:15:57;;;;;;;3.90;3.40;;;6.90;99.90;;;;;;4926135;29;20210;-84
2023/12/05 09:18:24;;;;;;;3.17;2.87;;;6.90;99.90;;;;;;4924950;29;20194;-84
2023/12/05 09:20:52;;;;;;;3.90;3.10;;;6.90;99.90;;;;;;4931281;29;20225;-85
2023/12/05 09:23:19;;;;;;;3.97;2.90;;;6.90;99.90;;;;;;4928384;29;20976;-84
2023/12/05 09:25:47;;;;;;;3.77;2.80;;;7.00;99.90;;;;;;4925899;29;20196;-84
2023/12/05 09:28:15;;;;;;;3.80;2.93;;;7.00;99.90;;;;;;4931462;29;20212;-83
2023/12/05 09:30:42;;;;;;;5.10;3.03;;;7.00;99.90;;;;;;4926033;29;20199;-84
2023/12/05 09:33:11;;;;;;;4.83;2.90;;;7.00;99.90;;;;;;4918898;29;20249;-83
2023/12/05 09:35:39;;;;;;;3.80;3.10;;;7.00;99.90;;;;;;4929575;29;20206;-83
2023/12/05 09:38:07;;;;;;;3.00;2.63;;;7.00;99.90;;;;;;4925566;29;20204;-83
2023/12/05 09:40:35;;;;;;;3.03;2.73;;;7.10;99.90;;;;;;4928460;29;20218;-83
2023/12/05 09:43:06;;;;;;;3.17;2.87;;;7.10;99.90;;;;;;4929078;29;20235;-83
2023/12/05 09:45:39;;;;;;;3.00;2.70;;;7.10;99.90;;;;;;4930035;29;20206;-83
2023/12/05 09:48:09;;;;;;;3.60;2.93;;;7.20;99.90;;;;;;4928961;29;20206;-83
2023/12/05 09:50:38;;;;;;;3.00;2.70;;;7.20;99.90;;;;;;4935830;29;20195;-84
2023/12/05 09:53:09;;;;;;;5.07;2.50;;;7.20;99.90;;;;;;4923280;29;20233;-83
2023/12/05 09:55:37;;;;;;;2.53;2.23;;;7.20;99.90;;;;;;4931178;29;20209;-83
2023/12/05 09:58:05;;;;;;;2.93;2.63;;;7.20;99.90;;;;;;4931896;29;20211;-84
2023/12/05 10:00:33;;;;;;;2.87;2.57;;;7.20;99.90;;;;;;4924981;29;20232;-84
2023/12/05 10:03:05;;;;;;;2.90;2.20;;;7.30;99.90;;;;;;4927258;29;20227;-83
2023/12/05 10:05:35;;;;;;;3.83;2.47;;;7.30;99.90;;;;;;4921107;29;20202;-84
2023/12/05 10:08:04;;;;;;;2.40;1.83;;;7.30;99.90;;;;;;4925307;29;20229;-85
2023/12/05 10:10:34;;;;;;;2.30;2.03;;;7.30;99.90;;;;;;4920319;29;20218;-83
2023/12/05 10:13:03;;;;;;;2.20;2.00;;;7.30;99.90;;;;;;4926393;29;20234;-84
2023/12/05 10:15:31;;;;;;;2.67;2.13;;;7.30;99.90;;;;;;4923661;29;20214;-83
2023/12/05 10:18:00;;;;;;;2.83;2.17;;;7.30;99.90;;;;;;4924228;29;20398;-83
2023/12/05 10:20:27;;;;;;;2.40;2.20;;;7.30;99.90;;;;;;4924274;29;20607;-84
2023/12/05 10:22:55;;;;;;;2.40;1.77;;;7.30;99.90;;;;;;4925030;29;20233;-83
2023/12/05 10:25:24;;;;;;;2.40;2.17;;;7.40;99.90;;;;;;4925253;29;20580;-83
2023/12/05 10:28:03;;;;;;;3.00;1.60;;;7.40;99.90;;;;;;4935717;29;20212;-85
2023/12/05 10:30:34;;;;;;;2.47;1.80;;;7.40;99.90;;;;;;4930723;29;20210;-83
2023/12/05 10:33:10;;;;;;;2.57;2.10;;;7.40;99.90;;;;;;4928195;29;20234;-84
2023/12/05 10:35:38;;;;;;;3.50;1.93;;;7.40;99.90;;;;;;4918840;29;20214;-83
2023/12/05 10:38:06;;;;;;;1.87;1.60;;;7.40;99.90;;;;;;4926489;29;20216;-84
2023/12/05 10:40:54;;;;;;;2.67;1.87;;;7.50;99.90;;;;;;4925353;29;20218;-83
2023/12/05 10:43:23;;;;;;;1.90;1.70;;;7.50;99.90;;;;;;4939945;29;20236;-85
2023/12/05 10:45:51;;;;;;;1.90;1.70;;;7.50;99.90;;;;;;4924056;29;20229;-84
2023/12/05 10:48:19;;;;;;;5.60;1.73;;;7.50;99.90;;;;;;4923043;29;20206;-84
2023/12/05 10:50:48;;;;;;;2.17;1.60;;;7.50;99.90;;;;;;4915197;29;20202;-83
2023/12/05 10:53:16;;;;;;;1.73;1.50;;;7.50;99.90;;;;;;4924706;29;20230;-84
2023/12/05 10:55:44;;;;;;;2.33;1.90;;;7.50;99.90;;;;;;4923902;29;20207;-83
2023/12/05 10:58:14;;;;;;;1.60;1.30;;;7.50;99.90;;;;;;4927341;29;20207;-83
2023/12/05 11:00:42;;;;;;;2.57;1.80;;;7.50;99.90;;;;;;4923170;29;20697;-83
2023/12/05 11:03:10;;;;;;;2.87;1.60;;;7.60;99.90;;;;;;4918544;29;20230;-83
2023/12/05 11:05:38;;;;;;;1.60;1.50;;;7.60;99.90;;;;;;4919868;29;20206;-81
2023/12/05 11:08:05;;;;;;;2.50;1.80;;;7.60;99.90;;;;;;4925701;29;20203;-85
2023/12/05 11:10:33;;;;;;;1.67;1.57;;;7.60;99.90;;;;;;4927668;29;20200;-83
2023/12/05 11:13:03;;;;;;;2.70;1.53;;;7.60;99.90;;;;;;4925923;29;20230;-83
2023/12/05 11:15:36;;;;;;;1.73;1.37;;;7.60;99.90;;;;;;4927584;29;20202;-83
2023/12/05 11:18:11;;;;;;;2.13;1.23;;;7.60;99.90;;;;;;4923533;29;20211;-84
2023/12/05 11:20:56;;;;;;;2.53;1.30;;;7.60;99.90;;;;;;4921600;29;20223;-82
2023/12/05 11:23:45;;;;;;;1.50;1.40;;;7.60;99.90;;;;;;4915625;29;20238;-83
2023/12/05 11:26:29;;;;;;;3.97;2.60;;;7.60;99.90;;;;;;4923380;29;20209;-83
2023/12/05 11:29:06;;;;;;;1.60;1.50;;;7.90;99.90;;;;;;4934218;29;20213;-82
2023/12/05 11:31:46;;;;;;;1.40;1.27;;;7.70;99.90;;;;;;4919320;29;20206;-83
2023/12/05 11:34:28;;;;;;;1.57;1.13;;;7.60;99.90;;;;;;4920096;29;20234;-83
2023/12/05 11:37:08;;;;;;;2.20;1.50;;;7.60;99.90;;;;;;4936563;29;20199;-83
2023/12/05 11:39:36;;;;;;;1.40;1.30;;;7.60;99.90;;;;;;4919860;29;20203;-84
2023/12/05 11:42:09;;;;;;;3.80;1.50;;;7.70;99.90;;;;;;4919226;29;20227;-83
2023/12/05 11:44:37;;;;;;;1.57;1.37;;;8.40;99.90;;;;;;4933791;29;20234;-81
2023/12/05 11:47:14;;;;;;;1.40;1.10;;;9.10;99.90;;;;;;4924163;29;20207;-81
2023/12/05 11:49:49;;;;;;;0.83;0.70;;;8.10;99.90;;;;;;4928498;29;20207;-81
2023/12/05 11:52:18;;;;;;;0.93;0.83;;;7.80;99.90;;;;;;4926304;29;20198;-81
2023/12/05 11:54:48;;;;;;;1.60;0.70;;;7.70;99.90;;;;;;4925927;29;20202;-81
2023/12/05 11:57:16;;;;;;;1.80;1.00;;;7.70;99.90;;;;;;4929165;29;20210;-81
2023/12/05 11:59:46;;;;;;;1.20;1.10;;;7.70;99.90;;;;;;4924276;29;20209;-82
2023/12/05 12:02:17;;;;;;;1.90;0.80;;;7.60;99.90;;;;;;4927082;29;20250;-82
2023/12/05 12:04:46;;;;;;;0.97;0.80;;;7.70;99.90;;;;;;4928041;29;20183;-82
2023/12/05 12:07:13;;;;;;;1.60;1.00;;;7.60;99.90;;;;;;4923002;29;20206;-82
2023/12/05 12:09:41;;;;;;;2.00;1.00;;;7.60;99.90;;;;;;4928169;29;20217;-81
2023/12/05 12:12:09;;;;;;;0.93;0.80;;;7.60;99.90;;;;;;4927510;29;20205;-82
2023/12/05 12:14:38;;;;;;;1.17;0.70;;;7.60;99.90;;;;;;4929516;29;20223;-81
2023/12/05 12:17:06;;;;;;;1.00;0.77;;;7.60;99.90;;;;;;4924117;29;20210;-81
2023/12/05 12:19:39;;;;;;;0.80;0.60;;;7.60;99.90;;;;;;4925495;29;20199;-81
2023/12/05 12:22:07;;;;;;;1.57;1.10;;;7.60;99.90;;;;;;4924078;29;20233;-81
2023/12/05 12:24:36;;;;;;;0.80;0.80;;;7.70;99.90;;;;;;4923904;29;20228;-81
2023/12/05 12:27:05;;;;;;;1.80;0.70;;;7.60;99.90;;;;;;4926228;29;20206;-82
2023/12/05 12:29:32;;;;;;;1.07;0.70;;;7.60;99.90;;;;;;4926986;29;20210;-82
2023/12/05 12:32:08;;;;;;;0.90;0.90;;;7.60;99.90;;;;;;4927304;29;20211;-81
2023/12/05 12:34:36;;;;;;;0.93;0.80;;;7.70;99.90;;;;;;4939429;29;20236;-81
2023/12/05 12:37:05;;;;;;;0.70;0.70;;;7.60;99.90;;;;;;4926405;29;20211;-81
2023/12/05 12:39:36;;;;;;;0.90;0.70;;;7.60;99.90;;;;;;4925993;29;20191;-81
2023/12/05 12:42:04;;;;;;;1.33;0.80;;;7.60;99.90;;;;;;4923802;29;20226;-81
2023/12/05 12:44:31;;;;;;;1.20;0.73;;;7.60;99.90;;;;;;4929334;29;20225;-81
2023/12/05 12:46:59;;;;;;;0.67;0.67;;;7.70;99.90;;;;;;4923815;29;20214;-82
2023/12/05 12:49:27;;;;;;;1.07;0.93;;;7.60;99.90;;;;;;4923772;29;20224;-82
2023/12/05 12:51:55;;;;;;;1.67;0.90;;;7.70;99.90;;;;;;4929835;29;20679;-82
2023/12/05 12:54:24;;;;;;;1.30;1.10;;;7.70;99.90;;;;;;4927658;29;20230;-81
2023/12/05 12:56:53;;;;;;;3.07;1.10;;;7.60;99.90;;;;;;4928867;29;20199;-81
2023/12/05 12:59:22;;;;;;;1.80;0.97;;;7.70;99.90;;;;;;4928450;29;20203;-81
2023/12/05 13:01:53;;;;;;;1.33;1.10;;;7.70;99.90;;;;;;4955758;29;20233;-81
2023/12/05 13:04:21;;;;;;;1.47;1.03;;;7.70;99.90;;;;;;4959023;28;20241;-81
2023/12/05 13:06:48;;;;;;;1.13;1.00;;;7.60;99.90;;;;;;4956795;29;20202;-80
2023/12/05 13:09:20;;;;;;;1.17;1.00;;;7.60;99.90;;;;;;4961653;29;20205;-81